Station History

Weather Underground - logo

Station Historical Data
Daily Summary for February 2, 2018 Units:  English    Metric   Both
« Previous Day
Next Day »
Daily Weekly Monthly Yearly Custom
  High: Low: Average:
Temperature: TemperatureF °F 41.6 °F 54.3 °F
Dew Point: DewpointF °F 40.0 °F 47.6 °F
Humidity: Humidity % 51 % 80 %
Wind Speed: WindSpeedMPH mph 0.0 mph 0.5 mph
Wind Gust: WindSpeedGustMPH mph - -
Wind:- - WNW
Pressure: PressureIn in 30.10 in -
Precipitation: 0.00 in    
Historical Graphs
 
 
Tabular Data for February 2, 2018
Time Temperature Dew Point Pressure Wind Wind Speed Wind Gust Humidity Rainfall Rate (Hourly)
TemperatureF °F DewpointF °F PressureIn in Calm     Humidity % HourlyPrecipIn in
00:03 46.5 °F 44.0 °F 30.17 in Calm     91 % 0.00 in
00:08 46.6 °F 44.1 °F 30.17 in Calm     91 % 0.00 in
00:13 46.6 °F 44.4 °F 30.16 in Calm     92 % 0.00 in
00:18 46.7 °F 44.5 °F 30.16 in Calm     92 % 0.00 in
00:23 46.7 °F 44.5 °F 30.16 in Calm     92 % 0.00 in
00:28 46.4 °F 43.9 °F 30.16 in Calm     91 % 0.00 in
00:33 46.1 °F 43.6 °F 30.16 in Calm     91 % 0.00 in
00:38 45.8 °F 43.3 °F 30.17 in Calm     91 % 0.00 in
00:43 45.8 °F 43.6 °F 30.17 in Calm     92 % 0.00 in
00:48 45.6 °F 43.4 °F 30.17 in Calm     92 % 0.00 in
00:53 45.5 °F 43.3 °F 30.16 in Calm     92 % 0.00 in
00:58 45.4 °F 43.2 °F 30.16 in Calm     92 % 0.00 in
01:03 45.5 °F 43.3 °F 30.16 in Calm     92 % 0.00 in
01:08 45.6 °F 43.4 °F 30.16 in Calm     92 % 0.00 in
01:13 45.3 °F 42.8 °F 30.16 in Calm     91 % 0.00 in
01:18 45.3 °F 42.8 °F 30.16 in Calm     91 % 0.00 in
01:23 45.2 °F 43.0 °F 30.16 in Calm     92 % 0.00 in
01:28 45.1 °F 42.6 °F 30.16 in Calm     91 % 0.00 in
01:33 44.8 °F 42.3 °F 30.17 in Calm     91 % 0.00 in
01:38 44.6 °F 42.1 °F 30.17 in Calm     91 % 0.00 in
01:43 44.3 °F 42.1 °F 30.17 in Calm     92 % 0.00 in
01:48 44.3 °F 42.1 °F 30.17 in Calm     92 % 0.00 in
01:53 44.5 °F 42.6 °F 30.16 in Calm     93 % 0.00 in
01:58 44.5 °F 42.6 °F 30.16 in Calm     93 % 0.00 in
02:03 44.4 °F 42.5 °F 30.16 in Calm     93 % 0.00 in
02:08 44.2 °F 42.3 °F 30.16 in Calm     93 % 0.00 in
02:13 44.1 °F 42.2 °F 30.16 in Calm     93 % 0.00 in
02:18 44.1 °F 42.2 °F 30.16 in Calm     93 % 0.00 in
02:23 44.1 °F 42.2 °F 30.16 in Calm     93 % 0.00 in
02:28 44.1 °F 42.5 °F 30.16 in Calm     94 % 0.00 in
02:33 44.1 °F 42.5 °F 30.16 in Calm     94 % 0.00 in
02:38 44.1 °F 42.5 °F 30.16 in Calm     94 % 0.00 in
02:43 44.1 °F 42.5 °F 30.16 in Calm     94 % 0.00 in
02:48 44.1 °F 42.5 °F 30.16 in Calm     94 % 0.00 in
02:53 44.2 °F 42.6 °F 30.16 in Calm     94 % 0.00 in
02:59 44.1 °F 42.5 °F 30.16 in Calm     94 % 0.00 in
03:04 44.2 °F 42.6 °F 30.16 in Calm     94 % 0.00 in
03:09 44.2 °F 42.6 °F 30.17 in Calm     94 % 0.00 in
03:14 44.1 °F 42.5 °F 30.17 in Calm     94 % 0.00 in
03:19 44.1 °F 42.5 °F 30.17 in Calm     94 % 0.00 in
03:24 44.4 °F 43.1 °F 30.17 in Calm     95 % 0.00 in
03:29 44.1 °F 42.5 °F 30.17 in Calm     94 % 0.00 in
03:34 43.5 °F 41.6 °F 30.17 in Calm     93 % 0.00 in
03:39 43.3 °F 41.4 °F 30.17 in Calm     93 % 0.00 in
03:44 43.3 °F 41.7 °F 30.16 in Calm     94 % 0.00 in
03:49 43.5 °F 41.9 °F 30.16 in Calm     94 % 0.00 in
03:54 44.0 °F 42.4 °F 30.17 in Calm     94 % 0.00 in
03:59 44.2 °F 42.6 °F 30.16 in Calm     94 % 0.00 in
04:04 44.2 °F 42.6 °F 30.16 in Calm     94 % 0.00 in
04:09 43.7 °F 41.8 °F 30.16 in Calm     93 % 0.00 in
04:14 43.7 °F 42.1 °F 30.16 in Calm     94 % 0.00 in
04:19 43.3 °F 41.4 °F 30.16 in Calm     93 % 0.00 in
04:24 43.0 °F 41.1 °F 30.16 in Calm     93 % 0.00 in
04:29 42.8 °F 40.9 °F 30.16 in Calm     93 % 0.00 in
04:34 42.6 °F 40.7 °F 30.16 in Calm     93 % 0.00 in
04:39 42.6 °F 41.0 °F 30.16 in Calm     94 % 0.00 in
04:44 42.6 °F 41.0 °F 30.16 in Calm     94 % 0.00 in
04:49 42.1 °F 40.2 °F 30.16 in Calm     93 % 0.00 in
04:54 41.9 °F 40.0 °F 30.16 in Calm     93 % 0.00 in
04:59 41.8 °F 40.2 °F 30.16 in Calm     94 % 0.00 in
05:04 42.0 °F 40.4 °F 30.16 in Calm     94 % 0.00 in
05:09 42.1 °F 40.5 °F 30.16 in Calm     94 % 0.00 in
05:14 42.1 °F 40.5 °F 30.16 in Calm     94 % 0.00 in
05:19 42.2 °F 40.6 °F 30.16 in Calm     94 % 0.00 in
05:24 42.2 °F 40.6 °F 30.16 in Calm     94 % 0.00 in
05:29 42.1 °F 40.5 °F 30.17 in Calm     94 % 0.00 in
05:34 42.0 °F 40.4 °F 30.17 in Calm     94 % 0.00 in
05:39 41.9 °F 40.3 °F 30.17 in Calm     94 % 0.00 in
05:44 41.7 °F 40.1 °F 30.17 in Calm     94 % 0.00 in
05:49 41.7 °F 40.1 °F 30.17 in Calm     94 % 0.00 in
05:54 42.0 °F 40.7 °F 30.18 in Calm     95 % 0.00 in
05:59 42.3 °F 41.0 °F 30.18 in SE 1.2 mph   95 % 0.00 in
06:04 42.7 °F 41.4 °F 30.18 in Calm     95 % 0.00 in
06:09 42.8 °F 41.5 °F 30.18 in Calm     95 % 0.00 in
06:14 42.8 °F 41.5 °F 30.18 in Calm     95 % 0.00 in
06:19 42.8 °F 41.5 °F 30.18 in Calm     95 % 0.00 in
06:24 42.8 °F 41.5 °F 30.18 in Calm     95 % 0.00 in
06:29 42.9 °F 41.6 °F 30.18 in Calm     95 % 0.00 in
06:34 43.0 °F 41.7 °F 30.18 in Calm     95 % 0.00 in
06:39 43.2 °F 41.9 °F 30.19 in Calm     95 % 0.00 in
06:44 43.2 °F 41.9 °F 30.19 in Calm     95 % 0.00 in
06:49 43.3 °F 42.0 °F 30.19 in Calm     95 % 0.00 in
06:54 43.2 °F 41.9 °F 30.19 in Calm     95 % 0.00 in
06:59 43.2 °F 41.9 °F 30.19 in Calm     95 % 0.00 in
07:04 43.1 °F 41.8 °F 30.20 in Calm     95 % 0.00 in
07:09 42.7 °F 41.4 °F 30.19 in Calm     95 % 0.00 in
07:14 42.2 °F 40.6 °F 30.19 in Calm     94 % 0.00 in
07:19 41.8 °F 40.2 °F 30.20 in Calm     94 % 0.00 in
07:24 41.6 °F 40.0 °F 30.20 in Calm     94 % 0.00 in
07:29 41.7 °F 40.1 °F 30.20 in Calm     94 % 0.00 in
07:34 41.9 °F 40.6 °F 30.20 in Calm     95 % 0.00 in
07:39 42.2 °F 40.9 °F 30.20 in Calm     95 % 0.00 in
07:44 42.4 °F 41.1 °F 30.20 in Calm     95 % 0.00 in
07:49 42.8 °F 41.5 °F 30.20 in Calm     95 % 0.00 in
07:54 43.3 °F 42.0 °F 30.20 in Calm     95 % 0.00 in
07:59 43.8 °F 42.5 °F 30.20 in Calm     95 % 0.00 in
08:04 44.5 °F 43.2 °F 30.20 in Calm     95 % 0.00 in
08:09 45.1 °F 43.8 °F 30.20 in Calm     95 % 0.00 in
08:14 45.6 °F 44.3 °F 30.20 in Calm     95 % 0.00 in
08:19 46.1 °F 44.7 °F 30.20 in Calm     95 % 0.00 in
08:24 46.7 °F 45.3 °F 30.20 in Calm     95 % 0.00 in
08:29 47.5 °F 45.9 °F 30.20 in Calm     94 % 0.00 in
08:34 48.5 °F 46.9 °F 30.20 in Calm     94 % 0.00 in
08:39 49.7 °F 47.8 °F 30.21 in Calm     93 % 0.00 in
08:44 50.7 °F 48.2 °F 30.21 in Calm     91 % 0.00 in
08:49 51.6 °F 48.8 °F 30.21 in Calm     90 % 0.00 in
08:54 52.6 °F 49.4 °F 30.21 in Calm     89 % 0.00 in
08:59 53.5 °F 50.3 °F 30.21 in Calm     89 % 0.00 in
09:05 54.4 °F 50.9 °F 30.21 in Calm     88 % 0.00 in
09:10 55.5 °F 52.0 °F 30.21 in Calm     88 % 0.00 in
09:15 56.7 °F 52.2 °F 30.21 in Calm     85 % 0.00 in
09:20 57.3 °F 52.5 °F 30.21 in Calm     84 % 0.00 in
09:25 57.7 °F 52.9 °F 30.21 in Calm     84 % 0.00 in
09:30 58.3 °F 52.2 °F 30.21 in Calm     80 % 0.00 in
09:35 58.9 °F 52.4 °F 30.20 in Calm     79 % 0.00 in
09:40 59.6 °F 53.1 °F 30.21 in Calm     79 % 0.00 in
09:45 60.1 °F 52.5 °F 30.21 in Calm     76 % 0.00 in
09:50 60.4 °F 52.1 °F 30.21 in Calm     74 % 0.00 in
09:55 60.8 °F 52.8 °F 30.21 in SSE 2.3 mph 2.3 mph 75 % 0.00 in
10:00 61.3 °F 52.9 °F 30.21 in ESE 1.2 mph 1.2 mph 74 % 0.00 in
10:05 61.5 °F 53.1 °F 30.21 in SE 1.2 mph 1.2 mph 74 % 0.00 in
10:10 61.8 °F 53.1 °F 30.21 in Calm     73 % 0.00 in
10:15 62.0 °F 52.9 °F 30.21 in SE 1.2 mph 1.2 mph 72 % 0.00 in
10:20 62.4 °F 52.9 °F 30.20 in Calm     71 % 0.00 in
10:25 62.7 °F 53.2 °F 30.20 in Calm     71 % 0.00 in
10:30 63.0 °F 53.8 °F 30.20 in Calm     72 % 0.00 in
10:35 63.6 °F 53.6 °F 30.19 in SSE 2.3 mph 2.3 mph 70 % 0.00 in
10:40 64.1 °F 53.3 °F 30.19 in SE 1.2 mph 1.2 mph 68 % 0.00 in
10:45 64.3 °F 52.7 °F 30.19 in East 3.5 mph 3.5 mph 66 % 0.00 in
10:50 64.8 °F 53.6 °F 30.19 in Calm     67 % 0.00 in
10:55 65.5 °F 53.4 °F 30.19 in South 2.3 mph 2.3 mph 65 % 0.00 in
11:00 66.1 °F 53.6 °F 30.19 in Calm     64 % 0.00 in
11:05 66.3 °F 53.8 °F 30.19 in Calm     64 % 0.00 in
11:10 66.2 °F 52.8 °F 30.19 in Calm     62 % 0.00 in
11:15 66.5 °F 52.6 °F 30.19 in NW 1.2 mph 1.2 mph 61 % 0.00 in
11:20 66.0 °F 52.2 °F 30.19 in NNW 2.3 mph 2.3 mph 61 % 0.00 in
11:25 65.9 °F 52.5 °F 30.19 in Calm   0.2 mph 62 % 0.00 in
11:30 66.2 °F 52.3 °F 30.19 in NW 2.3 mph 2.3 mph 61 % 0.00 in
11:35 66.4 °F 52.1 °F 30.18 in NW 1.2 mph 1.2 mph 60 % 0.00 in
11:40 66.5 °F 52.6 °F 30.18 in WNW 1.2 mph   61 % 0.00 in
11:45 66.9 °F 52.1 °F 30.18 in Calm   0.5 mph 59 % 0.00 in
11:50 67.2 °F 52.4 °F 30.17 in NW 1.2 mph   59 % 0.00 in
11:55 67.4 °F 52.1 °F 30.17 in North 1.2 mph 1.2 mph 58 % 0.00 in
12:00 67.7 °F 52.4 °F 30.17 in West 1.0 mph 1.0 mph 58 % 0.00 in
12:05 68.2 °F 53.3 °F 30.17 in NNW 1.2 mph 1.2 mph 59 % 0.00 in
12:10 68.4 °F 52.1 °F 30.17 in NW 2.3 mph 2.3 mph 56 % 0.00 in
12:15 68.2 °F 52.4 °F 30.16 in West 1.2 mph 1.2 mph 57 % 0.00 in
12:20 68.2 °F 51.9 °F 30.16 in NW 3.5 mph 3.5 mph 56 % 0.00 in
12:25 68.3 °F 51.5 °F 30.16 in WNW 3.5 mph 3.5 mph 55 % 0.00 in
12:30 68.4 °F 52.1 °F 30.15 in WNW 1.2 mph 1.2 mph 56 % 0.00 in
12:35 68.3 °F 51.5 °F 30.15 in NW 2.3 mph 2.3 mph 55 % 0.00 in
12:40 68.4 °F 51.6 °F 30.15 in NW 2.0 mph 2.0 mph 55 % 0.00 in
12:45 68.7 °F 51.4 °F 30.15 in NW 1.2 mph 1.2 mph 54 % 0.00 in
12:50 68.9 °F 51.1 °F 30.14 in NNW 1.2 mph   53 % 0.00 in
12:55 69.4 °F 51.5 °F 30.14 in NW 1.2 mph 1.2 mph 53 % 0.00 in
13:00 69.9 °F 51.5 °F 30.14 in NW 2.3 mph 2.3 mph 52 % 0.00 in
13:05 69.8 °F 51.4 °F 30.14 in NW 3.5 mph 3.5 mph 52 % 0.00 in
13:10 69.8 °F 50.9 °F 30.13 in WNW 3.5 mph 3.5 mph 51 % 0.00 in
13:16 69.7 °F 51.3 °F 30.13 in NW 1.2 mph   52 % 0.00 in
13:21 69.8 °F 51.9 °F 30.13 in NW 2.3 mph   53 % 0.00 in
13:26 69.8 °F 51.4 °F 30.12 in NW 2.0 mph 2.0 mph 52 % 0.00 in
13:31 69.8 °F 51.4 °F 30.13 in NW 2.3 mph 2.3 mph 52 % 0.00 in
13:36 69.7 °F 52.3 °F 30.12 in NW 1.2 mph   54 % 0.00 in
13:41 69.7 °F 51.8 °F 30.12 in NW 2.3 mph 2.3 mph 53 % 0.00 in
13:46 69.5 °F 52.1 °F 30.12 in NW 1.2 mph 1.2 mph 54 % 0.00 in
13:51 69.6 °F 52.2 °F 30.12 in Calm     54 % 0.00 in
13:56 70.1 °F 52.2 °F 30.12 in WNW 1.2 mph   53 % 0.00 in
14:01 70.4 °F 51.9 °F 30.12 in NW 3.0 mph 3.0 mph 52 % 0.00 in
14:06 70.5 °F 52.0 °F 30.11 in WNW 3.5 mph 3.5 mph 52 % 0.00 in
14:11 70.7 °F 53.2 °F 30.11 in WNW 2.3 mph 2.3 mph 54 % 0.00 in
14:16 70.9 °F 52.9 °F 30.11 in Calm   0.2 mph 53 % 0.00 in
14:21 71.2 °F 53.2 °F 30.11 in WNW 2.3 mph 2.3 mph 53 % 0.00 in
14:26 71.0 °F 53.5 °F 30.11 in NW 2.3 mph 2.3 mph 54 % 0.00 in
14:31 70.8 °F 53.3 °F 30.11 in WNW 2.0 mph 2.0 mph 54 % 0.00 in
14:36 70.3 °F 53.4 °F 30.11 in NW 1.2 mph 1.2 mph 55 % 0.00 in
14:41 70.3 °F 52.9 °F 30.11 in NE 2.3 mph 2.3 mph 54 % 0.00 in
14:46 70.3 °F 53.4 °F 30.11 in WNW 2.3 mph 2.3 mph 55 % 0.00 in
14:51 70.3 °F 52.9 °F 30.11 in NW 2.3 mph 2.3 mph 54 % 0.00 in
14:56 70.0 °F 52.6 °F 30.11 in NW 2.3 mph 2.3 mph 54 % 0.00 in
15:01 69.9 °F 53.5 °F 30.11 in WNW 2.3 mph 2.3 mph 56 % 0.00 in
15:06 69.9 °F 53.5 °F 30.11 in NW 2.3 mph 2.3 mph 56 % 0.00 in
15:11 69.9 °F 53.5 °F 30.11 in West 3.5 mph 3.5 mph 56 % 0.00 in
15:16 69.7 °F 53.3 °F 30.11 in NW 3.5 mph 3.5 mph 56 % 0.00 in
15:21 69.6 °F 53.2 °F 30.10 in NW 2.0 mph 2.0 mph 56 % 0.00 in
15:26 69.6 °F 53.7 °F 30.10 in NW 2.0 mph 2.0 mph 57 % 0.00 in
15:31 69.5 °F 53.1 °F 30.11 in NW 2.3 mph 2.3 mph 56 % 0.00 in
15:36 69.4 °F 53.5 °F 30.11 in NW 2.3 mph 2.3 mph 57 % 0.00 in
15:41 69.3 °F 53.4 °F 30.11 in NW 2.3 mph 2.3 mph 57 % 0.00 in
15:46 69.2 °F 53.8 °F 30.10 in NNW 2.3 mph 2.3 mph 58 % 0.00 in
15:52 69.0 °F 53.6 °F 30.10 in NNW 3.5 mph 3.5 mph 58 % 0.00 in
15:57 68.7 °F 53.8 °F 30.10 in NW 2.3 mph 2.3 mph 59 % 0.00 in
16:02 68.4 °F 53.5 °F 30.10 in NW 2.3 mph 2.3 mph 59 % 0.00 in
16:07 68.2 °F 53.8 °F 30.10 in Calm     60 % 0.00 in
16:12 68.0 °F 53.6 °F 30.10 in NW 2.3 mph 2.3 mph 60 % 0.00 in
16:17 67.8 °F 53.4 °F 30.11 in WNW 1.2 mph 1.2 mph 60 % 0.00 in
16:22 67.4 °F 53.5 °F 30.11 in Calm     61 % 0.00 in
16:27 67.2 °F 53.3 °F 30.11 in Calm     61 % 0.00 in
16:32 66.9 °F 53.5 °F 30.11 in Calm     62 % 0.00 in
16:37 66.8 °F 53.4 °F 30.10 in Calm     62 % 0.00 in
16:42 66.6 °F 53.2 °F 30.10 in Calm     62 % 0.00 in
16:47 66.3 °F 53.3 °F 30.10 in Calm     63 % 0.00 in
16:52 66.0 °F 53.0 °F 30.10 in Calm     63 % 0.00 in
16:57 65.6 °F 53.1 °F 30.11 in Calm     64 % 0.00 in
17:02 65.2 °F 53.1 °F 30.11 in Calm     65 % 0.00 in
17:07 64.9 °F 52.8 °F 30.10 in Calm     65 % 0.00 in
17:12 64.4 °F 52.8 °F 30.11 in Calm     66 % 0.00 in
17:17 63.9 °F 52.7 °F 30.11 in Calm     67 % 0.00 in
17:22 63.4 °F 53.0 °F 30.11 in Calm     69 % 0.00 in
17:27 62.7 °F 52.4 °F 30.11 in Calm     69 % 0.00 in
17:32 62.1 °F 53.0 °F 30.11 in Calm     72 % 0.00 in
17:37 61.6 °F 53.2 °F 30.11 in Calm     74 % 0.00 in
17:42 61.1 °F 53.1 °F 30.12 in Calm     75 % 0.00 in
17:47 60.5 °F 52.9 °F 30.12 in Calm     76 % 0.00 in
17:52 59.9 °F 52.7 °F 30.12 in Calm     77 % 0.00 in
17:57 59.4 °F 52.2 °F 30.12 in Calm     77 % 0.00 in
18:02 58.9 °F 51.7 °F 30.12 in Calm     77 % 0.00 in
18:07 58.6 °F 51.8 °F 30.12 in Calm     78 % 0.00 in
18:12 58.2 °F 51.4 °F 30.12 in Calm     78 % 0.00 in
18:17 57.9 °F 51.4 °F 30.12 in Calm     79 % 0.00 in
18:22 57.7 °F 51.6 °F 30.12 in Calm     80 % 0.00 in
18:27 57.6 °F 51.5 °F 30.13 in Calm     80 % 0.00 in
18:32 57.4 °F 51.6 °F 30.13 in Calm     81 % 0.00 in
18:37 57.2 °F 51.4 °F 30.13 in Calm     81 % 0.00 in
18:42 57.3 °F 51.5 °F 30.13 in Calm     81 % 0.00 in
18:47 57.4 °F 51.6 °F 30.14 in Calm     81 % 0.00 in
18:52 57.2 °F 51.1 °F 30.14 in Calm     80 % 0.00 in
18:57 56.7 °F 50.9 °F 30.14 in Calm     81 % 0.00 in
19:02 56.3 °F 50.9 °F 30.14 in Calm     82 % 0.00 in
19:07 56.1 °F 51.0 °F 30.14 in Calm     83 % 0.00 in
19:12 55.9 °F 50.8 °F 30.15 in Calm     83 % 0.00 in
19:17 55.8 °F 50.7 °F 30.15 in Calm     83 % 0.00 in
19:22 55.6 °F 50.5 °F 30.14 in Calm     83 % 0.00 in
19:27 55.5 °F 50.4 °F 30.14 in Calm     83 % 0.00 in
19:32 55.3 °F 50.2 °F 30.14 in Calm     83 % 0.00 in
19:37 55.2 °F 50.4 °F 30.14 in Calm     84 % 0.00 in
19:42 55.1 °F 50.0 °F 30.15 in NW 1.2 mph   83 % 0.00 in
19:47 55.1 °F 50.0 °F 30.15 in Calm     83 % 0.00 in
19:52 54.8 °F 49.7 °F 30.15 in Calm     83 % 0.00 in
19:57 54.3 °F 49.2 °F 30.15 in Calm     83 % 0.00 in
20:02 54.2 °F 49.5 °F 30.15 in Calm     84 % 0.00 in
20:07 54.0 °F 49.3 °F 30.15 in Calm     84 % 0.00 in
20:12 53.7 °F 49.3 °F 30.15 in Calm     85 % 0.00 in
20:17 53.9 °F 49.8 °F 30.15 in Calm   0.1 mph 86 % 0.00 in
20:22 54.3 °F 49.6 °F 30.16 in Calm     84 % 0.00 in
20:27 54.1 °F 49.7 °F 30.16 in Calm     85 % 0.00 in
20:32 54.1 °F 49.7 °F 30.16 in Calm     85 % 0.00 in
20:37 53.7 °F 48.7 °F 30.16 in Calm     83 % 0.00 in
20:42 53.2 °F 48.8 °F 30.16 in Calm     85 % 0.00 in
20:47 53.0 °F 48.9 °F 30.16 in Calm     86 % 0.00 in
20:52 52.8 °F 48.7 °F 30.17 in Calm     86 % 0.00 in
20:57 52.5 °F 48.4 °F 30.17 in Calm     86 % 0.00 in
21:02 52.2 °F 48.4 °F 30.17 in Calm     87 % 0.00 in
21:08 52.0 °F 48.3 °F 30.17 in Calm     87 % 0.00 in
21:13 51.8 °F 48.4 °F 30.17 in Calm     88 % 0.00 in
21:18 51.9 °F 48.5 °F 30.17 in Calm     88 % 0.00 in
21:23 51.7 °F 48.3 °F 30.18 in Calm     88 % 0.00 in
21:28 51.5 °F 48.4 °F 30.17 in Calm     89 % 0.00 in
21:33 51.5 °F 48.4 °F 30.17 in Calm     89 % 0.00 in
21:38 51.9 °F 48.8 °F 30.17 in Calm     89 % 0.00 in
21:43 51.9 °F 48.5 °F 30.17 in Calm     88 % 0.00 in
21:48 51.8 °F 48.4 °F 30.17 in Calm     88 % 0.00 in
21:53 51.5 °F 47.8 °F 30.17 in Calm     87 % 0.00 in
21:58 51.1 °F 47.7 °F 30.18 in Calm     88 % 0.00 in
22:03 50.8 °F 47.4 °F 30.18 in Calm     88 % 0.00 in
22:08 50.6 °F 47.5 °F 30.17 in Calm     89 % 0.00 in
22:13 50.6 °F 47.5 °F 30.17 in Calm     89 % 0.00 in
22:18 50.4 °F 47.3 °F 30.17 in Calm     89 % 0.00 in
22:23 50.2 °F 47.1 °F 30.17 in Calm     89 % 0.00 in
22:28 50.1 °F 47.0 °F 30.17 in Calm     89 % 0.00 in
22:33 50.0 °F 46.9 °F 30.17 in Calm     89 % 0.00 in
22:38 49.8 °F 46.7 °F 30.17 in Calm     89 % 0.00 in
22:43 49.5 °F 46.4 °F 30.17 in Calm     89 % 0.00 in
22:48 49.1 °F 46.0 °F 30.17 in Calm     89 % 0.00 in
22:53 48.7 °F 45.3 °F 30.17 in Calm     88 % 0.00 in
22:58 48.3 °F 44.9 °F 30.17 in Calm     88 % 0.00 in
23:03 48.0 °F 44.9 °F 30.16 in Calm     89 % 0.00 in
23:08 47.7 °F 44.6 °F 30.17 in Calm     89 % 0.00 in
23:13 47.7 °F 45.2 °F 30.16 in Calm     91 % 0.00 in
23:18 47.8 °F 45.6 °F 30.17 in Calm     92 % 0.00 in
23:23 48.0 °F 45.8 °F 30.16 in Calm     92 % 0.00 in
23:28 47.7 °F 45.2 °F 30.16 in Calm     91 % 0.00 in
23:33 47.4 °F 44.6 °F 30.16 in Calm     90 % 0.00 in
23:38 47.1 °F 44.6 °F 30.17 in Calm     91 % 0.00 in
23:43 46.9 °F 44.4 °F 30.16 in Calm     91 % 0.00 in
23:46 46.9 °F 44.7 °F 30.17 in Calm     92 % 0.00 in
23:51 47.3 °F 45.1 °F 30.17 in Calm     92 % 0.00 in
23:56 47.7 °F 45.5 °F 30.17 in Calm     92 % 0.00 in
Park Place, Exeter, Tulare County, California, USA
Compliments of Weather Underground - 2.75 mb